sensor_id;sensor_type;location;lat;lon;timestamp;pressure;altitude;pressure_sealevel;temperature;humidity
73103;BME280;61294;65.988;29.172;2022-12-18T00:01:38;98206.06;;;-6.91;100.00
73103;BME280;61294;65.988;29.172;2022-12-18T00:04:07;98214.81;;;-6.87;100.00
73103;BME280;61294;65.988;29.172;2022-12-18T00:06:40;98228.84;;;-6.81;100.00
73103;BME280;61294;65.988;29.172;2022-12-18T00:09:06;98243.69;;;-6.75;100.00
73103;BME280;61294;65.988;29.172;2022-12-18T00:11:31;98249.75;;;-6.73;100.00
73103;BME280;61294;65.988;29.172;2022-12-18T00:13:59;98224.16;;;-6.88;100.00
73103;BME280;61294;65.988;29.172;2022-12-18T00:16:27;98230.50;;;-6.81;100.00
73103;BME280;61294;65.988;29.172;2022-12-18T00:18:55;98253.91;;;-6.75;100.00
73103;BME280;61294;65.988;29.172;2022-12-18T00:21:22;98216.31;;;-6.91;100.00
73103;BME280;61294;65.988;29.172;2022-12-18T00:23:49;98224.16;;;-6.88;100.00
73103;BME280;61294;65.988;29.172;2022-12-18T00:26:17;98248.88;;;-6.73;100.00
73103;BME280;61294;65.988;29.172;2022-12-18T00:28:45;98214.81;;;-6.87;100.00
73103;BME280;61294;65.988;29.172;2022-12-18T00:31:13;98218.06;;;-6.90;100.00
73103;BME280;61294;65.988;29.172;2022-12-18T00:33:39;98225.13;;;-6.86;100.00
73103;BME280;61294;65.988;29.172;2022-12-18T00:36:17;98230.34;;;-6.84;100.00
73103;BME280;61294;65.988;29.172;2022-12-18T00:38:45;98222.56;;;-6.86;100.00
73103;BME280;61294;65.988;29.172;2022-12-18T00:41:12;98235.81;;;-6.78;100.00
73103;BME280;61294;65.988;29.172;2022-12-18T00:43:39;98245.25;;;-6.77;100.00
73103;BME280;61294;65.988;29.172;2022-12-18T00:46:08;98241.97;;;-6.74;100.00
73103;BME280;61294;65.988;29.172;2022-12-18T00:48:36;98222.19;;;-6.77;100.00
73103;BME280;61294;65.988;29.172;2022-12-18T00:51:04;98221.88;;;-6.83;100.00
73103;BME280;61294;65.988;29.172;2022-12-18T00:53:37;98247.09;;;-6.74;100.00
73103;BME280;61294;65.988;29.172;2022-12-18T00:56:04;98236.84;;;-6.74;100.00
73103;BME280;61294;65.988;29.172;2022-12-18T00:58:30;98236.00;;;-6.75;100.00
73103;BME280;61294;65.988;29.172;2022-12-18T01:00:56;98232.72;;;-6.72;100.00
73103;BME280;61294;65.988;29.172;2022-12-18T01:03:21;98233.50;;;-6.73;100.00
73103;BME280;61294;65.988;29.172;2022-12-18T01:05:47;98197.50;;;-6.91;100.00
73103;BME280;61294;65.988;29.172;2022-12-18T01:08:13;98205.25;;;-6.90;100.00
73103;BME280;61294;65.988;29.172;2022-12-18T01:10:42;98207.66;;;-6.78;100.00
73103;BME280;61294;65.988;29.172;2022-12-18T01:13:07;98192.53;;;-6.88;100.00
73103;BME280;61294;65.988;29.172;2022-12-18T01:15:33;98198.81;;;-6.83;100.00
73103;BME280;61294;65.988;29.172;2022-12-18T01:17:59;98193.44;;;-6.88;100.00
73103;BME280;61294;65.988;29.172;2022-12-18T01:20:25;98200.41;;;-6.85;100.00
73103;BME280;61294;65.988;29.172;2022-12-18T01:22:51;98218.16;;;-6.73;100.00
73103;BME280;61294;65.988;29.172;2022-12-18T01:25:16;98199.50;;;-6.86;100.00
73103;BME280;61294;65.988;29.172;2022-12-18T01:27:43;98217.81;;;-6.80;100.00
73103;BME280;61294;65.988;29.172;2022-12-18T01:30:09;98217.34;;;-6.72;100.00
73103;BME280;61294;65.988;29.172;2022-12-18T01:32:35;98218.94;;;-6.74;100.00
73103;BME280;61294;65.988;29.172;2022-12-18T01:35:01;98207.03;;;-6.74;100.00
73103;BME280;61294;65.988;29.172;2022-12-18T01:37:26;98210.00;;;-6.81;100.00
73103;BME280;61294;65.988;29.172;2022-12-18T01:39:52;98220.78;;;-6.72;100.00
73103;BME280;61294;65.988;29.172;2022-12-18T01:42:21;98216.28;;;-6.76;100.00
73103;BME280;61294;65.988;29.172;2022-12-18T01:45:01;98209.47;;;-6.76;100.00
73103;BME280;61294;65.988;29.172;2022-12-18T01:47:41;98210.22;;;-6.78;100.00
73103;BME280;61294;65.988;29.172;2022-12-18T01:50:18;98201.81;;;-6.90;100.00
73103;BME280;61294;65.988;29.172;2022-12-18T01:52:49;98194.94;;;-6.91;100.00
73103;BME280;61294;65.988;29.172;2022-12-18T01:55:18;98199.34;;;-6.89;100.00
73103;BME280;61294;65.988;29.172;2022-12-18T01:57:44;98223.88;;;-6.78;100.00
73103;BME280;61294;65.988;29.172;2022-12-18T02:00:16;98240.31;;;-6.74;100.00
73103;BME280;61294;65.988;29.172;2022-12-18T02:02:43;98212.41;;;-6.84;100.00
73103;BME280;61294;65.988;29.172;2022-12-18T02:05:12;98229.25;;;-6.73;100.00
73103;BME280;61294;65.988;29.172;2022-12-18T02:10:45;98241.03;;;-6.77;100.00
73103;BME280;61294;65.988;29.172;2022-12-18T02:16:02;98238.47;;;-6.77;100.00
73103;BME280;61294;65.988;29.172;2022-12-18T02:18:44;98232.03;;;-6.85;100.00
73103;BME280;61294;65.988;29.172;2022-12-18T02:21:21;98247.72;;;-6.79;100.00
73103;BME280;61294;65.988;29.172;2022-12-18T02:23:57;98246.69;;;-6.82;100.00
73103;BME280;61294;65.988;29.172;2022-12-18T02:26:34;98236.00;;;-6.90;100.00
73103;BME280;61294;65.988;29.172;2022-12-18T02:29:12;98229.13;;;-6.91;100.00
73103;BME280;61294;65.988;29.172;2022-12-18T02:31:43;98229.75;;;-6.95;100.00
73103;BME280;61294;65.988;29.172;2022-12-18T02:34:11;98239.63;;;-6.86;100.00
73103;BME280;61294;65.988;29.172;2022-12-18T02:36:43;98227.44;;;-6.90;100.00
73103;BME280;61294;65.988;29.172;2022-12-18T02:39:12;98246.78;;;-6.81;100.00
73103;BME280;61294;65.988;29.172;2022-12-18T02:41:42;98233.50;;;-6.88;100.00
73103;BME280;61294;65.988;29.172;2022-12-18T02:44:10;98252.75;;;-6.80;100.00
73103;BME280;61294;65.988;29.172;2022-12-18T02:46:46;98251.44;;;-6.88;100.00
73103;BME280;61294;65.988;29.172;2022-12-18T02:49:55;98238.84;;;-6.85;100.00
73103;BME280;61294;65.988;29.172;2022-12-18T02:52:52;98248.72;;;-6.77;100.00
73103;BME280;61294;65.988;29.172;2022-12-18T02:58:20;98247.56;;;-6.82;100.00
73103;BME280;61294;65.988;29.172;2022-12-18T03:01:03;98243.06;;;-6.86;100.00
73103;BME280;61294;65.988;29.172;2022-12-18T03:03:49;98239.09;;;-6.81;100.00
73103;BME280;61294;65.988;29.172;2022-12-18T03:06:27;98217.72;;;-6.96;100.00
73103;BME280;61294;65.988;29.172;2022-12-18T03:08:58;98235.63;;;-6.81;100.00
73103;BME280;61294;65.988;29.172;2022-12-18T03:11:28;98247.72;;;-6.79;100.00
73103;BME280;61294;65.988;29.172;2022-12-18T03:14:18;98214.72;;;-6.89;100.00
73103;BME280;61294;65.988;29.172;2022-12-18T03:16:47;98220.63;;;-6.90;100.00
73103;BME280;61294;65.988;29.172;2022-12-18T03:19:16;98242.59;;;-6.79;100.00
73103;BME280;61294;65.988;29.172;2022-12-18T03:21:47;98233.06;;;-6.81;100.00
73103;BME280;61294;65.988;29.172;2022-12-18T03:24:22;98227.53;;;-6.89;100.00
73103;BME280;61294;65.988;29.172;2022-12-18T03:26:57;98251.09;;;-6.80;100.00
73103;BME280;61294;65.988;29.172;2022-12-18T03:29:40;98253.75;;;-6.78;100.00
73103;BME280;61294;65.988;29.172;2022-12-18T03:32:11;98229.28;;;-6.88;100.00
73103;BME280;61294;65.988;29.172;2022-12-18T03:34:42;98243.22;;;-6.83;100.00
73103;BME280;61294;65.988;29.172;2022-12-18T03:37:11;98251.97;;;-6.79;100.00
73103;BME280;61294;65.988;29.172;2022-12-18T03:39:40;98248.63;;;-6.78;100.00
73103;BME280;61294;65.988;29.172;2022-12-18T03:42:45;98251.00;;;-6.81;100.00
73103;BME280;61294;65.988;29.172;2022-12-18T03:48:36;98253.13;;;-6.74;100.00
73103;BME280;61294;65.988;29.172;2022-12-18T03:55:51;98257.44;;;-6.73;100.00
73103;BME280;61294;65.988;29.172;2022-12-18T03:59:12;98247.38;;;-6.85;100.00
73103;BME280;61294;65.988;29.172;2022-12-18T04:01:45;98219.75;;;-6.90;100.00
73103;BME280;61294;65.988;29.172;2022-12-18T04:04:13;98226.91;;;-6.85;100.00
73103;BME280;61294;65.988;29.172;2022-12-18T04:06:40;98218.06;;;-6.90;100.00
73103;BME280;61294;65.988;29.172;2022-12-18T04:09:08;98241.91;;;-6.76;100.00
73103;BME280;61294;65.988;29.172;2022-12-18T04:11:33;98266.19;;;-6.69;100.00
73103;BME280;61294;65.988;29.172;2022-12-18T04:13:59;98260.16;;;-6.70;100.00
73103;BME280;61294;65.988;29.172;2022-12-18T04:16:26;98266.38;;;-6.66;100.00
73103;BME280;61294;65.988;29.172;2022-12-18T04:18:53;98261.94;;;-6.69;100.00
73103;BME280;61294;65.988;29.172;2022-12-18T04:21:19;98270.50;;;-6.68;100.00
73103;BME280;61294;65.988;29.172;2022-12-18T04:23:45;98259.38;;;-6.69;100.00
73103;BME280;61294;65.988;29.172;2022-12-18T04:26:11;98264.59;;;-6.67;100.00
73103;BME280;61294;65.988;29.172;2022-12-18T04:28:37;98268.84;;;-6.68;100.00
73103;BME280;61294;65.988;29.172;2022-12-18T04:31:03;98263.00;;;-6.65;100.00
73103;BME280;61294;65.988;29.172;2022-12-18T04:33:29;98253.28;;;-6.86;100.00
73103;BME280;61294;65.988;29.172;2022-12-18T04:35:55;98233.06;;;-6.81;100.00
73103;BME280;61294;65.988;29.172;2022-12-18T04:38:21;98266.09;;;-6.71;100.00
73103;BME280;61294;65.988;29.172;2022-12-18T04:40:46;98258.50;;;-6.69;100.00
73103;BME280;61294;65.988;29.172;2022-12-18T04:43:12;98262.19;;;-6.64;100.00
73103;BME280;61294;65.988;29.172;2022-12-18T04:45:38;98265.50;;;-6.67;100.00
73103;BME280;61294;65.988;29.172;2022-12-18T04:48:04;98254.34;;;-6.67;100.00
73103;BME280;61294;65.988;29.172;2022-12-18T04:50:30;98261.16;;;-6.68;100.00
73103;BME280;61294;65.988;29.172;2022-12-18T04:52:57;98247.03;;;-6.76;100.00
73103;BME280;61294;65.988;29.172;2022-12-18T04:55:23;98267.22;;;-6.66;100.00
73103;BME280;61294;65.988;29.172;2022-12-18T04:57:48;98262.94;;;-6.67;100.00
73103;BME280;61294;65.988;29.172;2022-12-18T05:00:14;98268.91;;;-6.66;100.00
73103;BME280;61294;65.988;29.172;2022-12-18T05:02:40;98252.41;;;-6.71;100.00
73103;BME280;61294;65.988;29.172;2022-12-18T05:05:07;98267.22;;;-6.66;100.00
73103;BME280;61294;65.988;29.172;2022-12-18T05:07:33;98238.19;;;-6.81;100.00
73103;BME280;61294;65.988;29.172;2022-12-18T05:09:58;98277.56;;;-6.64;100.00
73103;BME280;61294;65.988;29.172;2022-12-18T05:12:24;98274.13;;;-6.65;100.00
73103;BME280;61294;65.988;29.172;2022-12-18T05:14:50;98292.84;;;-6.66;100.00
73103;BME280;61294;65.988;29.172;2022-12-18T05:17:16;98284.22;;;-6.68;100.00
73103;BME280;61294;65.988;29.172;2022-12-18T05:19:42;98276.63;;;-6.66;100.00
73103;BME280;61294;65.988;29.172;2022-12-18T05:22:08;98288.63;;;-6.65;100.00
73103;BME280;61294;65.988;29.172;2022-12-18T05:24:34;98288.63;;;-6.65;100.00
73103;BME280;61294;65.988;29.172;2022-12-18T05:26:59;98277.16;;;-6.72;100.00
73103;BME280;61294;65.988;29.172;2022-12-18T05:29:25;98301.44;;;-6.65;100.00
73103;BME280;61294;65.988;29.172;2022-12-18T05:31:51;98296.31;;;-6.65;100.00
73103;BME280;61294;65.988;29.172;2022-12-18T05:34:17;98301.34;;;-6.67;100.00
73103;BME280;61294;65.988;29.172;2022-12-18T05:36:42;98300.44;;;-6.67;100.00
73103;BME280;61294;65.988;29.172;2022-12-18T05:39:08;98294.47;;;-6.68;100.00
73103;BME280;61294;65.988;29.172;2022-12-18T05:41:34;98303.28;;;-6.63;100.00
73103;BME280;61294;65.988;29.172;2022-12-18T05:44:00;98296.22;;;-6.67;100.00
73103;BME280;61294;65.988;29.172;2022-12-18T05:46:26;98285.69;;;-6.71;100.00
73103;BME280;61294;65.988;29.172;2022-12-18T05:48:52;98302.22;;;-6.66;100.00
73103;BME280;61294;65.988;29.172;2022-12-18T05:51:20;98305.66;;;-6.66;100.00
73103;BME280;61294;65.988;29.172;2022-12-18T05:53:46;98275.03;;;-6.79;100.00
73103;BME280;61294;65.988;29.172;2022-12-18T05:56:18;98309.22;;;-6.64;100.00
73103;BME280;61294;65.988;29.172;2022-12-18T05:58:44;98281.72;;;-6.81;100.00
73103;BME280;61294;65.988;29.172;2022-12-18T06:01:13;98299.31;;;-6.72;100.00
73103;BME280;61294;65.988;29.172;2022-12-18T06:03:39;98286.06;;;-6.80;100.00
73103;BME280;61294;65.988;29.172;2022-12-18T06:06:26;98306.03;;;-6.74;100.00
73103;BME280;61294;65.988;29.172;2022-12-18T06:08:53;98326.97;;;-6.67;100.00
73103;BME280;61294;65.988;29.172;2022-12-18T06:11:22;98324.13;;;-6.71;100.00
73103;BME280;61294;65.988;29.172;2022-12-18T06:13:52;98319.00;;;-6.71;100.00
73103;BME280;61294;65.988;29.172;2022-12-18T06:16:18;98319.00;;;-6.71;100.00
73103;BME280;61294;65.988;29.172;2022-12-18T06:18:44;98310.34;;;-6.73;100.00
73103;BME280;61294;65.988;29.172;2022-12-18T06:21:10;98321.94;;;-6.65;100.00
73103;BME280;61294;65.988;29.172;2022-12-18T06:23:36;98308.84;;;-6.70;100.00
73103;BME280;61294;65.988;29.172;2022-12-18T06:26:06;98328.63;;;-6.67;100.00
73103;BME280;61294;65.988;29.172;2022-12-18T06:28:32;98328.47;;;-6.70;100.00
73103;BME280;61294;65.988;29.172;2022-12-18T06:30:58;98330.25;;;-6.69;100.00
73103;BME280;61294;65.988;29.172;2022-12-18T06:33:26;98329.63;;;-6.65;100.00
73103;BME280;61294;65.988;29.172;2022-12-18T06:35:54;98335.53;;;-6.66;100.00
73103;BME280;61294;65.988;29.172;2022-12-18T06:38:20;98336.41;;;-6.66;100.00
73103;BME280;61294;65.988;29.172;2022-12-18T06:40:45;98302.94;;;-6.84;100.00
73103;BME280;61294;65.988;29.172;2022-12-18T06:43:11;98321.38;;;-6.74;100.00
73103;BME280;61294;65.988;29.172;2022-12-18T06:45:37;98334.38;;;-6.71;100.00
73103;BME280;61294;65.988;29.172;2022-12-18T06:48:02;98331.03;;;-6.70;100.00
73103;BME280;61294;65.988;29.172;2022-12-18T06:50:28;98314.06;;;-6.83;100.00
73103;BME280;61294;65.988;29.172;2022-12-18T06:52:54;98328.03;;;-6.78;100.00
73103;BME280;61294;65.988;29.172;2022-12-18T06:55:20;98353.13;;;-6.72;100.00
73103;BME280;61294;65.988;29.172;2022-12-18T06:57:45;98355.03;;;-6.68;100.00
73103;BME280;61294;65.988;29.172;2022-12-18T07:00:11;98317.31;;;-6.86;100.00
73103;BME280;61294;65.988;29.172;2022-12-18T07:02:37;98347.19;;;-6.71;100.00
73103;BME280;61294;65.988;29.172;2022-12-18T07:05:03;98358.75;;;-6.63;100.00
73103;BME280;61294;65.988;29.172;2022-12-18T07:07:29;98323.59;;;-6.81;100.00
73103;BME280;61294;65.988;29.172;2022-12-18T07:09:55;98358.59;;;-6.66;100.00
73103;BME280;61294;65.988;29.172;2022-12-18T07:12:20;98356.03;;;-6.66;100.00
73103;BME280;61294;65.988;29.172;2022-12-18T07:14:46;98354.94;;;-6.70;100.00
73103;BME280;61294;65.988;29.172;2022-12-18T07:17:12;98365.94;;;-6.72;100.00
73103;BME280;61294;65.988;29.172;2022-12-18T07:19:37;98365.13;;;-6.71;100.00
73103;BME280;61294;65.988;29.172;2022-12-18T07:22:03;98360.06;;;-6.70;100.00
73103;BME280;61294;65.988;29.172;2022-12-18T07:24:29;98361.41;;;-6.77;100.00
73103;BME280;61294;65.988;29.172;2022-12-18T07:26:54;98370.31;;;-6.70;100.00
73103;BME280;61294;65.988;29.172;2022-12-18T07:29:20;98367.84;;;-6.68;100.00
73103;BME280;61294;65.988;29.172;2022-12-18T07:31:46;98381.31;;;-6.72;100.00
73103;BME280;61294;65.988;29.172;2022-12-18T07:34:13;98377.84;;;-6.73;100.00
73103;BME280;61294;65.988;29.172;2022-12-18T07:36:40;98381.31;;;-6.72;100.00
73103;BME280;61294;65.988;29.172;2022-12-18T07:39:06;98378.00;;;-6.70;100.00
73103;BME280;61294;65.988;29.172;2022-12-18T07:41:32;98369.38;;;-6.72;100.00
73103;BME280;61294;65.988;29.172;2022-12-18T07:43:58;98343.72;;;-6.87;100.00
73103;BME280;61294;65.988;29.172;2022-12-18T07:46:24;98366.00;;;-6.71;100.00
73103;BME280;61294;65.988;29.172;2022-12-18T07:48:50;98339.50;;;-6.86;100.00
73103;BME280;61294;65.988;29.172;2022-12-18T07:51:16;98370.06;;;-6.74;100.00
73103;BME280;61294;65.988;29.172;2022-12-18T07:53:43;98370.22;;;-6.71;100.00
73103;BME280;61294;65.988;29.172;2022-12-18T07:56:10;98358.50;;;-6.68;100.00
73103;BME280;61294;65.988;29.172;2022-12-18T07:58:36;98347.91;;;-6.74;100.00
73103;BME280;61294;65.988;29.172;2022-12-18T08:03:30;98348.88;;;-6.72;100.00
73103;BME280;61294;65.988;29.172;2022-12-18T08:06:03;98361.75;;;-6.70;100.00
73103;BME280;61294;65.988;29.172;2022-12-18T08:08:29;98358.69;;;-6.65;100.00
73103;BME280;61294;65.988;29.172;2022-12-18T08:10:56;98372.09;;;-6.69;100.00
73103;BME280;61294;65.988;29.172;2022-12-18T08:13:22;98349.47;;;-6.76;100.00
73103;BME280;61294;65.988;29.172;2022-12-18T08:16:05;98353.56;;;-6.80;100.00
73103;BME280;61294;65.988;29.172;2022-12-18T08:18:36;98373.78;;;-6.69;100.00
73103;BME280;61294;65.988;29.172;2022-12-18T08:21:23;98383.22;;;-6.68;100.00
73103;BME280;61294;65.988;29.172;2022-12-18T08:23:50;98379.25;;;-6.63;100.00
73103;BME280;61294;65.988;29.172;2022-12-18T08:26:16;98379.97;;;-6.66;100.00
73103;BME280;61294;65.988;29.172;2022-12-18T08:28:42;98386.06;;;-6.64;100.00
73103;BME280;61294;65.988;29.172;2022-12-18T08:31:08;98371.94;;;-6.72;100.00
73103;BME280;61294;65.988;29.172;2022-12-18T08:33:35;98348.16;;;-6.84;100.00
73103;BME280;61294;65.988;29.172;2022-12-18T08:36:05;98389.34;;;-6.66;100.00
73103;BME280;61294;65.988;29.172;2022-12-18T08:38:32;98387.63;;;-6.66;100.00
73103;BME280;61294;65.988;29.172;2022-12-18T08:40:59;98365.84;;;-6.74;100.00
73103;BME280;61294;65.988;29.172;2022-12-18T08:43:25;98372.97;;;-6.68;100.00
73103;BME280;61294;65.988;29.172;2022-12-18T08:46:10;98369.88;;;-6.63;100.00
73103;BME280;61294;65.988;29.172;2022-12-18T08:48:36;98380.94;;;-6.64;100.00
73103;BME280;61294;65.988;29.172;2022-12-18T08:51:01;98376.69;;;-6.63;100.00
73103;BME280;61294;65.988;29.172;2022-12-18T08:53:27;98385.25;;;-6.63;100.00
73103;BME280;61294;65.988;29.172;2022-12-18T08:55:53;98381.91;;;-6.62;100.00
73103;BME280;61294;65.988;29.172;2022-12-18T08:58:19;98381.91;;;-6.62;100.00
73103;BME280;61294;65.988;29.172;2022-12-18T09:00:45;98360.97;;;-6.69;100.00
73103;BME280;61294;65.988;29.172;2022-12-18T09:03:16;98343.56;;;-6.75;100.00
73103;BME280;61294;65.988;29.172;2022-12-18T09:05:42;98339.69;;;-6.83;100.00
73103;BME280;61294;65.988;29.172;2022-12-18T09:08:08;98348.63;;;-6.77;100.00
73103;BME280;61294;65.988;29.172;2022-12-18T09:10:40;98359.81;;;-6.74;100.00
73103;BME280;61294;65.988;29.172;2022-12-18T09:13:06;98365.50;;;-6.65;100.00
73103;BME280;61294;65.988;29.172;2022-12-18T09:15:32;98365.66;;;-6.62;100.00
73103;BME280;61294;65.988;29.172;2022-12-18T09:17:57;98349.81;;;-6.70;100.00
73103;BME280;61294;65.988;29.172;2022-12-18T09:20:23;98324.41;;;-6.82;100.00
73103;BME280;61294;65.988;29.172;2022-12-18T09:22:49;98360.44;;;-6.64;100.00
73103;BME280;61294;65.988;29.172;2022-12-18T09:25:15;98363.88;;;-6.63;100.00
73103;BME280;61294;65.988;29.172;2022-12-18T09:27:41;98333.16;;;-6.78;100.00
73103;BME280;61294;65.988;29.172;2022-12-18T09:30:07;98318.53;;;-6.94;100.00
73103;BME280;61294;65.988;29.172;2022-12-18T09:32:33;98365.50;;;-6.65;100.00
73103;BME280;61294;65.988;29.172;2022-12-18T09:34:59;98346.22;;;-6.73;100.00
73103;BME280;61294;65.988;29.172;2022-12-18T09:37:24;98345.59;;;-6.69;100.00
73103;BME280;61294;65.988;29.172;2022-12-18T09:39:50;98358.06;;;-6.61;100.00
73103;BME280;61294;65.988;29.172;2022-12-18T09:42:25;98364.97;;;-6.60;100.00
73103;BME280;61294;65.988;29.172;2022-12-18T09:44:53;98372.34;;;-6.64;100.00
73103;BME280;61294;65.988;29.172;2022-12-18T09:47:27;98370.88;;;-6.61;100.00
73103;BME280;61294;65.988;29.172;2022-12-18T09:49:58;98352.47;;;-6.68;100.00
73103;BME280;61294;65.988;29.172;2022-12-18T09:52:35;98361.25;;;-6.65;100.00
73103;BME280;61294;65.988;29.172;2022-12-18T09:55:32;98344.44;;;-6.74;100.00
73103;BME280;61294;65.988;29.172;2022-12-18T09:58:06;98330.38;;;-6.81;100.00
73103;BME280;61294;65.988;29.172;2022-12-18T10:00:33;98364.59;;;-6.66;100.00
73103;BME280;61294;65.988;29.172;2022-12-18T10:03:19;98356.56;;;-6.72;100.00
73103;BME280;61294;65.988;29.172;2022-12-18T10:05:56;98363.53;;;-6.69;100.00
73103;BME280;61294;65.988;29.172;2022-12-18T10:08:37;98361.25;;;-6.65;100.00
73103;BME280;61294;65.988;29.172;2022-12-18T10:17:09;98351.16;;;-6.77;100.00
73103;BME280;61294;65.988;29.172;2022-12-18T10:19:47;98351.00;;;-6.65;100.00
73103;BME280;61294;65.988;29.172;2022-12-18T10:27:53;98352.78;;;-6.64;100.00
73103;BME280;61294;65.988;29.172;2022-12-18T10:30:22;98356.03;;;-6.66;100.00
73103;BME280;61294;65.988;29.172;2022-12-18T10:32:48;98344.53;;;-6.73;100.00
73103;BME280;61294;65.988;29.172;2022-12-18T10:35:19;98335.72;;;-6.78;100.00
73103;BME280;61294;65.988;29.172;2022-12-18T10:38:19;98343.91;;;-6.69;100.00
73103;BME280;61294;65.988;29.172;2022-12-18T10:40:56;98340.94;;;-6.77;100.00
73103;BME280;61294;65.988;29.172;2022-12-18T10:43:36;98360.28;;;-6.67;100.00
73103;BME280;61294;65.988;29.172;2022-12-18T10:51:25;98342.59;;;-6.77;100.00
73103;BME280;61294;65.988;29.172;2022-12-18T10:54:19;98353.13;;;-6.72;100.00
73103;BME280;61294;65.988;29.172;2022-12-18T10:56:46;98368.84;;;-6.66;100.00
73103;BME280;61294;65.988;29.172;2022-12-18T10:59:15;98370.41;;;-6.68;100.00
73103;BME280;61294;65.988;29.172;2022-12-18T11:01:51;98361.25;;;-6.65;100.00
73103;BME280;61294;65.988;29.172;2022-12-18T11:04:23;98364.66;;;-6.64;100.00
73103;BME280;61294;65.988;29.172;2022-12-18T11:07:04;98370.69;;;-6.64;100.00
73103;BME280;61294;65.988;29.172;2022-12-18T11:09:32;98353.22;;;-6.71;100.00
73103;BME280;61294;65.988;29.172;2022-12-18T11:12:00;98348.69;;;-6.75;100.00
73103;BME280;61294;65.988;29.172;2022-12-18T11:14:53;98317.69;;;-6.95;100.00
73103;BME280;61294;65.988;29.172;2022-12-18T11:17:35;98352.22;;;-6.73;100.00
73103;BME280;61294;65.988;29.172;2022-12-18T11:20:04;98319.97;;;-6.99;100.00
73103;BME280;61294;65.988;29.172;2022-12-18T11:22:33;98348.88;;;-6.72;100.00
73103;BME280;61294;65.988;29.172;2022-12-18T11:25:06;98351.53;;;-6.70;100.00
73103;BME280;61294;65.988;29.172;2022-12-18T11:27:51;98355.94;;;-6.68;100.00
73103;BME280;61294;65.988;29.172;2022-12-18T11:32:52;98350.13;;;-6.65;100.00
73103;BME280;61294;65.988;29.172;2022-12-18T11:35:48;98345.69;;;-6.68;100.00
73103;BME280;61294;65.988;29.172;2022-12-18T11:38:34;98326.16;;;-6.81;100.00
73103;BME280;61294;65.988;29.172;2022-12-18T11:43:54;98352.47;;;-6.68;100.00
73103;BME280;61294;65.988;29.172;2022-12-18T11:46:43;98346.41;;;-6.70;100.00
73103;BME280;61294;65.988;29.172;2022-12-18T11:49:28;98333.50;;;-6.72;100.00
73103;BME280;61294;65.988;29.172;2022-12-18T11:52:04;98342.06;;;-6.71;100.00
73103;BME280;61294;65.988;29.172;2022-12-18T11:54:33;98322.81;;;-6.80;100.00
73103;BME280;61294;65.988;29.172;2022-12-18T11:57:09;98333.50;;;-6.72;100.00
73103;BME280;61294;65.988;29.172;2022-12-18T11:59:54;98337.66;;;-6.74;100.00
73103;BME280;61294;65.988;29.172;2022-12-18T12:11:31;98293.50;;;-6.85;100.00
73103;BME280;61294;65.988;29.172;2022-12-18T12:14:24;98303.38;;;-6.76;100.00
73103;BME280;61294;65.988;29.172;2022-12-18T12:22:35;98289.84;;;-6.88;100.00
73103;BME280;61294;65.988;29.172;2022-12-18T12:25:33;98314.31;;;-6.79;100.00
73103;BME280;61294;65.988;29.172;2022-12-18T12:31:13;98281.13;;;-6.92;100.00
73103;BME280;61294;65.988;29.172;2022-12-18T12:36:38;98294.28;;;-6.86;100.00
73103;BME280;61294;65.988;29.172;2022-12-18T12:39:10;98304.97;;;-6.78;100.00
73103;BME280;61294;65.988;29.172;2022-12-18T12:41:39;98300.47;;;-6.82;100.00
73103;BME280;61294;65.988;29.172;2022-12-18T12:44:33;98293.31;;;-6.88;100.00
73103;BME280;61294;65.988;29.172;2022-12-18T12:47:07;98308.94;;;-6.83;100.00
73103;BME280;61294;65.988;29.172;2022-12-18T12:49:38;98308.25;;;-6.81;100.00
73103;BME280;61294;65.988;29.172;2022-12-18T12:52:09;98309.13;;;-6.80;100.00
73103;BME280;61294;65.988;29.172;2022-12-18T12:54:38;98307.00;;;-6.87;100.00
73103;BME280;61294;65.988;29.172;2022-12-18T12:59:49;98280.78;;;-6.98;100.00
73103;BME280;61294;65.988;29.172;2022-12-18T13:07:41;98289.25;;;-6.84;100.00
73103;BME280;61294;65.988;29.172;2022-12-18T13:10:23;98286.84;;;-6.81;100.00
73103;BME280;61294;65.988;29.172;2022-12-18T13:12:58;98298.41;;;-6.73;100.00
73103;BME280;61294;65.988;29.172;2022-12-18T13:15:48;98280.25;;;-6.92;100.00
73103;BME280;61294;65.988;29.172;2022-12-18T13:18:23;98290.22;;;-6.82;100.00
73103;BME280;61294;65.988;29.172;2022-12-18T13:20:50;98284.41;;;-6.80;100.00
73103;BME280;61294;65.988;29.172;2022-12-18T13:25:49;98272.91;;;-6.86;100.00
73103;BME280;61294;65.988;29.172;2022-12-18T13:28:17;98253.41;;;-6.99;100.00
73103;BME280;61294;65.988;29.172;2022-12-18T13:30:56;98250.56;;;-6.89;100.00
73103;BME280;61294;65.988;29.172;2022-12-18T13:38:23;98247.81;;;-6.77;100.00
73103;BME280;61294;65.988;29.172;2022-12-18T13:45:58;98237.06;;;-6.86;100.00
73103;BME280;61294;65.988;29.172;2022-12-18T13:48:26;98219.75;;;-6.90;100.00
73103;BME280;61294;65.988;29.172;2022-12-18T13:51:05;98223.56;;;-6.84;100.00
73103;BME280;61294;65.988;29.172;2022-12-18T13:53:51;98232.66;;;-6.74;100.00
73103;BME280;61294;65.988;29.172;2022-12-18T13:56:22;98217.81;;;-6.80;100.00
73103;BME280;61294;65.988;29.172;2022-12-18T13:59:18;98233.59;;;-6.72;100.00
73103;BME280;61294;65.988;29.172;2022-12-18T14:01:56;98237.75;;;-6.74;100.00
73103;BME280;61294;65.988;29.172;2022-12-18T14:04:32;98239.44;;;-6.74;100.00
73103;BME280;61294;65.988;29.172;2022-12-18T14:07:13;98231.66;;;-6.76;100.00
73103;BME280;61294;65.988;29.172;2022-12-18T14:09:44;98230.25;;;-6.71;100.00
73103;BME280;61294;65.988;29.172;2022-12-18T14:12:20;98232.72;;;-6.72;100.00
73103;BME280;61294;65.988;29.172;2022-12-18T14:15:31;98221.56;;;-6.73;100.00
73103;BME280;61294;65.988;29.172;2022-12-18T14:20:22;98213.34;;;-6.67;100.00
73103;BME280;61294;65.988;29.172;2022-12-18T14:22:49;98219.38;;;-6.67;100.00
73103;BME280;61294;65.988;29.172;2022-12-18T14:25:21;98207.97;;;-6.72;100.00